sensor_id;sensor_type;location;lat;lon;timestamp;P1;durP1;ratioP1;P2;durP2;ratioP2
69979;SDS011;57318;56.232;43.944;2022-12-15T00:02:31;9.50;;;4.25;;
69979;SDS011;57318;56.232;43.944;2022-12-15T00:05:15;10.02;;;4.30;;
69979;SDS011;57318;56.232;43.944;2022-12-15T00:08:06;9.60;;;4.40;;
69979;SDS011;57318;56.232;43.944;2022-12-15T00:10:52;9.25;;;4.38;;
69979;SDS011;57318;56.232;43.944;2022-12-15T00:13:36;10.13;;;3.85;;
69979;SDS011;57318;56.232;43.944;2022-12-15T00:16:20;9.93;;;4.85;;
69979;SDS011;57318;56.232;43.944;2022-12-15T00:19:04;9.38;;;4.72;;
69979;SDS011;57318;56.232;43.944;2022-12-15T00:21:49;9.25;;;4.40;;
69979;SDS011;57318;56.232;43.944;2022-12-15T00:24:33;8.52;;;4.53;;
69979;SDS011;57318;56.232;43.944;2022-12-15T00:27:17;9.20;;;4.18;;
69979;SDS011;57318;56.232;43.944;2022-12-15T00:30:03;9.75;;;4.40;;
69979;SDS011;57318;56.232;43.944;2022-12-15T00:32:48;12.68;;;4.95;;
69979;SDS011;57318;56.232;43.944;2022-12-15T00:35:32;10.25;;;4.57;;
69979;SDS011;57318;56.232;43.944;2022-12-15T00:38:17;10.68;;;4.78;;
69979;SDS011;57318;56.232;43.944;2022-12-15T00:41:01;9.98;;;4.13;;
69979;SDS011;57318;56.232;43.944;2022-12-15T00:43:27;10.07;;;4.63;;
69979;SDS011;57318;56.232;43.944;2022-12-15T00:45:54;10.05;;;4.63;;
69979;SDS011;57318;56.232;43.944;2022-12-15T00:48:39;7.13;;;3.75;;
69979;SDS011;57318;56.232;43.944;2022-12-15T00:51:05;11.20;;;4.70;;
69979;SDS011;57318;56.232;43.944;2022-12-15T00:53:31;9.70;;;4.63;;
69979;SDS011;57318;56.232;43.944;2022-12-15T00:56:15;12.05;;;5.03;;
69979;SDS011;57318;56.232;43.944;2022-12-15T00:58:59;11.80;;;5.25;;
69979;SDS011;57318;56.232;43.944;2022-12-15T01:01:44;12.55;;;4.53;;
69979;SDS011;57318;56.232;43.944;2022-12-15T01:04:28;9.52;;;4.05;;
69979;SDS011;57318;56.232;43.944;2022-12-15T01:07:13;8.32;;;4.10;;
69979;SDS011;57318;56.232;43.944;2022-12-15T01:09:57;11.27;;;4.15;;
69979;SDS011;57318;56.232;43.944;2022-12-15T01:12:41;9.05;;;3.95;;
69979;SDS011;57318;56.232;43.944;2022-12-15T01:15:25;10.77;;;4.07;;
69979;SDS011;57318;56.232;43.944;2022-12-15T01:18:10;9.88;;;4.60;;
69979;SDS011;57318;56.232;43.944;2022-12-15T01:20:57;12.85;;;3.78;;
69979;SDS011;57318;56.232;43.944;2022-12-15T01:23:24;9.82;;;4.30;;
69979;SDS011;57318;56.232;43.944;2022-12-15T01:25:51;9.82;;;4.43;;
69979;SDS011;57318;56.232;43.944;2022-12-15T01:28:18;8.38;;;4.38;;
69979;SDS011;57318;56.232;43.944;2022-12-15T01:30:44;11.05;;;4.45;;
69979;SDS011;57318;56.232;43.944;2022-12-15T01:33:10;9.18;;;4.47;;
69979;SDS011;57318;56.232;43.944;2022-12-15T01:35:36;10.43;;;4.75;;
69979;SDS011;57318;56.232;43.944;2022-12-15T01:38:02;8.98;;;4.55;;
69979;SDS011;57318;56.232;43.944;2022-12-15T01:40:28;8.63;;;4.23;;
69979;SDS011;57318;56.232;43.944;2022-12-15T01:43:15;8.48;;;4.50;;
69979;SDS011;57318;56.232;43.944;2022-12-15T01:48:59;9.20;;;3.63;;
69979;SDS011;57318;56.232;43.944;2022-12-15T01:56:29;8.60;;;4.38;;
69979;SDS011;57318;56.232;43.944;2022-12-15T01:58:58;11.02;;;4.22;;
69979;SDS011;57318;56.232;43.944;2022-12-15T02:01:26;9.27;;;3.97;;
69979;SDS011;57318;56.232;43.944;2022-12-15T02:03:52;12.13;;;4.67;;
69979;SDS011;57318;56.232;43.944;2022-12-15T02:06:17;7.40;;;4.27;;
69979;SDS011;57318;56.232;43.944;2022-12-15T02:08:46;8.55;;;4.20;;
69979;SDS011;57318;56.232;43.944;2022-12-15T02:11:25;9.73;;;4.80;;
69979;SDS011;57318;56.232;43.944;2022-12-15T02:14:01;7.47;;;4.18;;
69979;SDS011;57318;56.232;43.944;2022-12-15T02:16:34;10.68;;;4.30;;
69979;SDS011;57318;56.232;43.944;2022-12-15T02:21:46;11.52;;;5.13;;
69979;SDS011;57318;56.232;43.944;2022-12-15T02:24:25;9.63;;;4.10;;
69979;SDS011;57318;56.232;43.944;2022-12-15T02:33:16;9.55;;;4.90;;
69979;SDS011;57318;56.232;43.944;2022-12-15T02:38:26;8.98;;;4.20;;
69979;SDS011;57318;56.232;43.944;2022-12-15T02:40:56;11.25;;;4.28;;
69979;SDS011;57318;56.232;43.944;2022-12-15T02:43:26;11.13;;;5.03;;
69979;SDS011;57318;56.232;43.944;2022-12-15T02:54:56;9.27;;;4.32;;
69979;SDS011;57318;56.232;43.944;2022-12-15T02:57:21;12.50;;;4.03;;
69979;SDS011;57318;56.232;43.944;2022-12-15T02:59:53;8.20;;;4.30;;
69979;SDS011;57318;56.232;43.944;2022-12-15T03:02:25;8.30;;;3.88;;
69979;SDS011;57318;56.232;43.944;2022-12-15T03:04:54;10.35;;;4.30;;
69979;SDS011;57318;56.232;43.944;2022-12-15T03:07:21;10.82;;;4.93;;
69979;SDS011;57318;56.232;43.944;2022-12-15T03:09:50;8.73;;;4.07;;
69979;SDS011;57318;56.232;43.944;2022-12-15T03:12:16;22.60;;;7.93;;
69979;SDS011;57318;56.232;43.944;2022-12-15T03:14:41;10.13;;;4.37;;
69979;SDS011;57318;56.232;43.944;2022-12-15T03:17:08;9.90;;;4.65;;
69979;SDS011;57318;56.232;43.944;2022-12-15T03:19:33;9.70;;;4.73;;
69979;SDS011;57318;56.232;43.944;2022-12-15T03:21:59;7.73;;;4.10;;
69979;SDS011;57318;56.232;43.944;2022-12-15T03:24:26;8.55;;;4.78;;
69979;SDS011;57318;56.232;43.944;2022-12-15T03:26:51;9.57;;;4.20;;
69979;SDS011;57318;56.232;43.944;2022-12-15T03:29:17;8.63;;;3.80;;
69979;SDS011;57318;56.232;43.944;2022-12-15T03:31:43;7.30;;;4.40;;
69979;SDS011;57318;56.232;43.944;2022-12-15T03:34:09;7.07;;;4.13;;
69979;SDS011;57318;56.232;43.944;2022-12-15T03:36:35;10.45;;;4.15;;
69979;SDS011;57318;56.232;43.944;2022-12-15T03:39:00;11.03;;;5.20;;
69979;SDS011;57318;56.232;43.944;2022-12-15T03:41:26;11.43;;;5.43;;
69979;SDS011;57318;56.232;43.944;2022-12-15T03:43:51;11.30;;;5.50;;
69979;SDS011;57318;56.232;43.944;2022-12-15T03:46:17;11.13;;;5.27;;
69979;SDS011;57318;56.232;43.944;2022-12-15T03:48:42;11.27;;;4.93;;
69979;SDS011;57318;56.232;43.944;2022-12-15T03:51:08;12.80;;;4.73;;
69979;SDS011;57318;56.232;43.944;2022-12-15T03:53:34;12.80;;;5.70;;
69979;SDS011;57318;56.232;43.944;2022-12-15T03:55:59;14.77;;;6.00;;
69979;SDS011;57318;56.232;43.944;2022-12-15T03:58:25;11.43;;;5.57;;
69979;SDS011;57318;56.232;43.944;2022-12-15T04:00:50;12.13;;;5.10;;
69979;SDS011;57318;56.232;43.944;2022-12-15T04:03:16;12.13;;;5.97;;
69979;SDS011;57318;56.232;43.944;2022-12-15T04:05:42;11.70;;;5.20;;
69979;SDS011;57318;56.232;43.944;2022-12-15T04:08:07;13.37;;;5.83;;
69979;SDS011;57318;56.232;43.944;2022-12-15T04:10:33;12.33;;;5.63;;
69979;SDS011;57318;56.232;43.944;2022-12-15T04:15:26;14.88;;;5.93;;
69979;SDS011;57318;56.232;43.944;2022-12-15T04:17:52;11.75;;;6.00;;
69979;SDS011;57318;56.232;43.944;2022-12-15T04:20:18;12.00;;;4.95;;
69979;SDS011;57318;56.232;43.944;2022-12-15T04:22:45;12.98;;;5.78;;
69979;SDS011;57318;56.232;43.944;2022-12-15T04:25:13;15.10;;;5.93;;
69979;SDS011;57318;56.232;43.944;2022-12-15T04:28:00;11.05;;;5.25;;
69979;SDS011;57318;56.232;43.944;2022-12-15T04:30:45;14.73;;;6.05;;
69979;SDS011;57318;56.232;43.944;2022-12-15T04:33:33;14.73;;;6.07;;
69979;SDS011;57318;56.232;43.944;2022-12-15T04:36:20;13.30;;;5.80;;
69979;SDS011;57318;56.232;43.944;2022-12-15T04:39:05;15.88;;;6.30;;
69979;SDS011;57318;56.232;43.944;2022-12-15T04:41:50;15.95;;;6.85;;
69979;SDS011;57318;56.232;43.944;2022-12-15T04:44:35;13.32;;;5.80;;
69979;SDS011;57318;56.232;43.944;2022-12-15T04:47:19;14.05;;;6.68;;
69979;SDS011;57318;56.232;43.944;2022-12-15T04:50:03;12.48;;;5.90;;
69979;SDS011;57318;56.232;43.944;2022-12-15T04:52:47;14.70;;;6.50;;
69979;SDS011;57318;56.232;43.944;2022-12-15T04:55:35;13.45;;;6.10;;
69979;SDS011;57318;56.232;43.944;2022-12-15T04:58:20;13.30;;;6.18;;
69979;SDS011;57318;56.232;43.944;2022-12-15T05:01:04;18.00;;;5.88;;
69979;SDS011;57318;56.232;43.944;2022-12-15T05:03:49;15.50;;;6.60;;
69979;SDS011;57318;56.232;43.944;2022-12-15T05:06:33;17.15;;;6.32;;
69979;SDS011;57318;56.232;43.944;2022-12-15T05:09:17;16.95;;;6.22;;
69979;SDS011;57318;56.232;43.944;2022-12-15T05:12:01;13.63;;;6.60;;
69979;SDS011;57318;56.232;43.944;2022-12-15T05:14:46;11.00;;;4.70;;
69979;SDS011;57318;56.232;43.944;2022-12-15T05:17:30;13.52;;;6.22;;
69979;SDS011;57318;56.232;43.944;2022-12-15T05:20:14;15.13;;;5.82;;
69979;SDS011;57318;56.232;43.944;2022-12-15T05:22:58;14.02;;;6.32;;
69979;SDS011;57318;56.232;43.944;2022-12-15T05:25:43;12.88;;;5.70;;
69979;SDS011;57318;56.232;43.944;2022-12-15T05:28:28;16.88;;;6.30;;
69979;SDS011;57318;56.232;43.944;2022-12-15T05:31:13;16.77;;;6.75;;
69979;SDS011;57318;56.232;43.944;2022-12-15T05:33:57;14.50;;;5.97;;
69979;SDS011;57318;56.232;43.944;2022-12-15T05:36:23;19.42;;;5.90;;
69979;SDS011;57318;56.232;43.944;2022-12-15T05:38:49;15.98;;;7.07;;
69979;SDS011;57318;56.232;43.944;2022-12-15T05:41:16;17.40;;;7.35;;
69979;SDS011;57318;56.232;43.944;2022-12-15T05:43:43;16.45;;;8.00;;
69979;SDS011;57318;56.232;43.944;2022-12-15T05:46:09;17.37;;;6.33;;
69979;SDS011;57318;56.232;43.944;2022-12-15T05:48:35;16.50;;;6.65;;
69979;SDS011;57318;56.232;43.944;2022-12-15T05:51:07;15.87;;;7.43;;
69979;SDS011;57318;56.232;43.944;2022-12-15T05:53:35;19.58;;;7.65;;
69979;SDS011;57318;56.232;43.944;2022-12-15T05:56:04;22.77;;;7.75;;
69979;SDS011;57318;56.232;43.944;2022-12-15T05:58:32;18.60;;;7.50;;
69979;SDS011;57318;56.232;43.944;2022-12-15T06:01:02;18.60;;;8.13;;
69979;SDS011;57318;56.232;43.944;2022-12-15T06:03:32;17.65;;;6.93;;
69979;SDS011;57318;56.232;43.944;2022-12-15T06:05:58;17.80;;;7.88;;
69979;SDS011;57318;56.232;43.944;2022-12-15T06:08:25;18.98;;;6.90;;
69979;SDS011;57318;56.232;43.944;2022-12-15T06:10:54;18.95;;;8.85;;
69979;SDS011;57318;56.232;43.944;2022-12-15T06:13:23;19.35;;;7.85;;
69979;SDS011;57318;56.232;43.944;2022-12-15T06:15:53;16.75;;;7.20;;
69979;SDS011;57318;56.232;43.944;2022-12-15T06:18:27;15.75;;;6.63;;
69979;SDS011;57318;56.232;43.944;2022-12-15T06:20:58;19.00;;;7.80;;
69979;SDS011;57318;56.232;43.944;2022-12-15T06:23:26;17.10;;;7.28;;
69979;SDS011;57318;56.232;43.944;2022-12-15T06:25:52;15.18;;;6.22;;
69979;SDS011;57318;56.232;43.944;2022-12-15T06:28:19;16.85;;;6.47;;
69979;SDS011;57318;56.232;43.944;2022-12-15T06:30:54;16.80;;;7.07;;
69979;SDS011;57318;56.232;43.944;2022-12-15T06:33:25;17.55;;;6.78;;
69979;SDS011;57318;56.232;43.944;2022-12-15T06:35:52;13.32;;;6.30;;
69979;SDS011;57318;56.232;43.944;2022-12-15T06:38:18;14.97;;;6.57;;
69979;SDS011;57318;56.232;43.944;2022-12-15T06:40:44;17.45;;;6.57;;
69979;SDS011;57318;56.232;43.944;2022-12-15T06:43:09;19.00;;;7.50;;
69979;SDS011;57318;56.232;43.944;2022-12-15T06:45:35;14.77;;;6.23;;
69979;SDS011;57318;56.232;43.944;2022-12-15T06:48:01;17.47;;;7.33;;
69979;SDS011;57318;56.232;43.944;2022-12-15T06:50:26;12.50;;;5.90;;
69979;SDS011;57318;56.232;43.944;2022-12-15T06:52:52;16.23;;;6.20;;
69979;SDS011;57318;56.232;43.944;2022-12-15T06:55:18;17.87;;;6.83;;
69979;SDS011;57318;56.232;43.944;2022-12-15T06:57:45;19.77;;;7.40;;
69979;SDS011;57318;56.232;43.944;2022-12-15T07:00:11;19.17;;;7.57;;
69979;SDS011;57318;56.232;43.944;2022-12-15T07:02:40;18.33;;;7.85;;
69979;SDS011;57318;56.232;43.944;2022-12-15T07:05:06;19.73;;;7.55;;
69979;SDS011;57318;56.232;43.944;2022-12-15T07:09:58;20.13;;;8.02;;
69979;SDS011;57318;56.232;43.944;2022-12-15T07:12:24;17.70;;;6.93;;
69979;SDS011;57318;56.232;43.944;2022-12-15T07:14:49;15.67;;;7.57;;
69979;SDS011;57318;56.232;43.944;2022-12-15T07:17:15;17.73;;;7.53;;
69979;SDS011;57318;56.232;43.944;2022-12-15T07:19:40;17.97;;;7.53;;
69979;SDS011;57318;56.232;43.944;2022-12-15T07:22:06;19.80;;;7.30;;
69979;SDS011;57318;56.232;43.944;2022-12-15T07:24:32;20.13;;;7.00;;
69979;SDS011;57318;56.232;43.944;2022-12-15T07:26:57;19.33;;;7.27;;
69979;SDS011;57318;56.232;43.944;2022-12-15T07:29:23;17.57;;;7.30;;
69979;SDS011;57318;56.232;43.944;2022-12-15T07:31:49;19.70;;;8.07;;
69979;SDS011;57318;56.232;43.944;2022-12-15T07:34:15;15.57;;;6.00;;
69979;SDS011;57318;56.232;43.944;2022-12-15T07:36:40;17.60;;;6.83;;
69979;SDS011;57318;56.232;43.944;2022-12-15T07:39:06;19.03;;;6.80;;
69979;SDS011;57318;56.232;43.944;2022-12-15T07:41:32;16.85;;;6.63;;
69979;SDS011;57318;56.232;43.944;2022-12-15T07:43:57;18.73;;;6.60;;
69979;SDS011;57318;56.232;43.944;2022-12-15T07:46:23;12.65;;;5.85;;
69979;SDS011;57318;56.232;43.944;2022-12-15T07:51:15;13.00;;;5.97;;
69979;SDS011;57318;56.232;43.944;2022-12-15T07:53:42;12.05;;;5.75;;
69979;SDS011;57318;56.232;43.944;2022-12-15T07:56:07;12.03;;;5.90;;
69979;SDS011;57318;56.232;43.944;2022-12-15T07:58:33;12.80;;;4.75;;
69979;SDS011;57318;56.232;43.944;2022-12-15T08:01:00;12.52;;;5.50;;
69979;SDS011;57318;56.232;43.944;2022-12-15T08:03:28;14.23;;;6.10;;
69979;SDS011;57318;56.232;43.944;2022-12-15T08:05:54;14.60;;;6.53;;
69979;SDS011;57318;56.232;43.944;2022-12-15T08:08:20;14.85;;;6.45;;
69979;SDS011;57318;56.232;43.944;2022-12-15T08:13:12;16.83;;;6.53;;
69979;SDS011;57318;56.232;43.944;2022-12-15T08:15:38;14.63;;;6.30;;
69979;SDS011;57318;56.232;43.944;2022-12-15T08:18:04;13.98;;;6.72;;
69979;SDS011;57318;56.232;43.944;2022-12-15T08:20:30;20.40;;;8.02;;
69979;SDS011;57318;56.232;43.944;2022-12-15T08:22:56;18.55;;;7.28;;
69979;SDS011;57318;56.232;43.944;2022-12-15T08:25:23;12.27;;;5.80;;
69979;SDS011;57318;56.232;43.944;2022-12-15T08:27:49;17.50;;;7.15;;
69979;SDS011;57318;56.232;43.944;2022-12-15T08:30:15;13.90;;;5.57;;
69979;SDS011;57318;56.232;43.944;2022-12-15T08:32:42;12.75;;;6.03;;
69979;SDS011;57318;56.232;43.944;2022-12-15T08:35:08;15.48;;;6.95;;
69979;SDS011;57318;56.232;43.944;2022-12-15T08:37:35;16.70;;;6.53;;
69979;SDS011;57318;56.232;43.944;2022-12-15T08:40:00;14.57;;;6.00;;
69979;SDS011;57318;56.232;43.944;2022-12-15T08:42:32;16.13;;;6.97;;
69979;SDS011;57318;56.232;43.944;2022-12-15T08:45:01;15.80;;;6.78;;
69979;SDS011;57318;56.232;43.944;2022-12-15T08:47:28;14.40;;;5.60;;
69979;SDS011;57318;56.232;43.944;2022-12-15T08:49:54;15.63;;;7.45;;
69979;SDS011;57318;56.232;43.944;2022-12-15T08:52:20;14.47;;;6.00;;
69979;SDS011;57318;56.232;43.944;2022-12-15T08:54:47;14.98;;;6.90;;
69979;SDS011;57318;56.232;43.944;2022-12-15T08:57:13;11.93;;;5.80;;
69979;SDS011;57318;56.232;43.944;2022-12-15T08:59:39;12.60;;;5.80;;
69979;SDS011;57318;56.232;43.944;2022-12-15T09:02:04;12.13;;;5.50;;
69979;SDS011;57318;56.232;43.944;2022-12-15T09:04:31;13.40;;;5.88;;
69979;SDS011;57318;56.232;43.944;2022-12-15T09:06:56;13.90;;;6.20;;
69979;SDS011;57318;56.232;43.944;2022-12-15T09:09:22;12.90;;;6.10;;
69979;SDS011;57318;56.232;43.944;2022-12-15T09:11:48;11.53;;;5.97;;
69979;SDS011;57318;56.232;43.944;2022-12-15T09:14:14;12.95;;;5.70;;
69979;SDS011;57318;56.232;43.944;2022-12-15T09:16:41;12.55;;;5.95;;
69979;SDS011;57318;56.232;43.944;2022-12-15T09:19:07;13.33;;;5.63;;
69979;SDS011;57318;56.232;43.944;2022-12-15T09:21:33;14.57;;;5.63;;
69979;SDS011;57318;56.232;43.944;2022-12-15T09:24:00;13.98;;;6.85;;
69979;SDS011;57318;56.232;43.944;2022-12-15T09:26:27;16.83;;;7.07;;
69979;SDS011;57318;56.232;43.944;2022-12-15T09:28:54;17.60;;;6.78;;
69979;SDS011;57318;56.232;43.944;2022-12-15T09:31:21;13.00;;;5.88;;
69979;SDS011;57318;56.232;43.944;2022-12-15T09:33:53;12.82;;;6.13;;
69979;SDS011;57318;56.232;43.944;2022-12-15T09:36:20;13.30;;;6.47;;
69979;SDS011;57318;56.232;43.944;2022-12-15T09:38:46;12.52;;;5.75;;
69979;SDS011;57318;56.232;43.944;2022-12-15T09:43:45;9.67;;;5.67;;
69979;SDS011;57318;56.232;43.944;2022-12-15T09:46:24;12.95;;;5.47;;
69979;SDS011;57318;56.232;43.944;2022-12-15T09:52:13;12.45;;;6.10;;
69979;SDS011;57318;56.232;43.944;2022-12-15T09:54:43;10.52;;;5.55;;
69979;SDS011;57318;56.232;43.944;2022-12-15T09:57:24;10.77;;;5.80;;
69979;SDS011;57318;56.232;43.944;2022-12-15T10:08:19;13.53;;;5.67;;
69979;SDS011;57318;56.232;43.944;2022-12-15T10:10:55;9.82;;;5.50;;
69979;SDS011;57318;56.232;43.944;2022-12-15T10:13:33;11.10;;;6.05;;
69979;SDS011;57318;56.232;43.944;2022-12-15T10:16:07;9.30;;;5.90;;
69979;SDS011;57318;56.232;43.944;2022-12-15T10:18:39;8.65;;;5.15;;
69979;SDS011;57318;56.232;43.944;2022-12-15T10:21:10;9.10;;;5.35;;
69979;SDS011;57318;56.232;43.944;2022-12-15T10:23:39;8.82;;;5.53;;
69979;SDS011;57318;56.232;43.944;2022-12-15T10:31:53;8.85;;;5.15;;
69979;SDS011;57318;56.232;43.944;2022-12-15T10:34:25;8.30;;;5.25;;
69979;SDS011;57318;56.232;43.944;2022-12-15T10:36:53;87.80;;;14.90;;
69979;SDS011;57318;56.232;43.944;2022-12-15T10:39:20;7.78;;;5.10;;
69979;SDS011;57318;56.232;43.944;2022-12-15T10:42:08;8.02;;;4.90;;
69979;SDS011;57318;56.232;43.944;2022-12-15T10:44:46;9.57;;;5.07;;
69979;SDS011;57318;56.232;43.944;2022-12-15T10:47:22;9.77;;;5.47;;
69979;SDS011;57318;56.232;43.944;2022-12-15T10:50:15;11.15;;;5.90;;
69979;SDS011;57318;56.232;43.944;2022-12-15T10:52:42;10.38;;;5.28;;
69979;SDS011;57318;56.232;43.944;2022-12-15T10:57:58;10.90;;;5.25;;
69979;SDS011;57318;56.232;43.944;2022-12-15T11:00:26;9.52;;;5.18;;
69979;SDS011;57318;56.232;43.944;2022-12-15T11:02:54;10.10;;;6.05;;
69979;SDS011;57318;56.232;43.944;2022-12-15T11:07:47;9.63;;;5.63;;
69979;SDS011;57318;56.232;43.944;2022-12-15T11:10:22;15.20;;;6.55;;
69979;SDS011;57318;56.232;43.944;2022-12-15T11:13:31;11.63;;;5.97;;
69979;SDS011;57318;56.232;43.944;2022-12-15T11:15:46;12.27;;;6.07;;
69979;SDS011;57318;56.232;43.944;2022-12-15T11:20:47;9.38;;;5.57;;
69979;SDS011;57318;56.232;43.944;2022-12-15T11:31:50;11.05;;;4.93;;
69979;SDS011;57318;56.232;43.944;2022-12-15T11:34:40;11.35;;;5.68;;
69979;SDS011;57318;56.232;43.944;2022-12-15T11:48:44;9.38;;;5.32;;
69979;SDS011;57318;56.232;43.944;2022-12-15T11:51:41;9.48;;;4.93;;
69979;SDS011;57318;56.232;43.944;2022-12-15T11:56:44;9.35;;;4.95;;
69979;SDS011;57318;56.232;43.944;2022-12-15T12:15:47;8.80;;;4.75;;
69979;SDS011;57318;56.232;43.944;2022-12-15T12:18:31;11.60;;;5.03;;
69979;SDS011;57318;56.232;43.944;2022-12-15T12:21:09;10.63;;;4.97;;
69979;SDS011;57318;56.232;43.944;2022-12-15T12:23:49;9.77;;;5.10;;
69979;SDS011;57318;56.232;43.944;2022-12-15T12:29:10;11.83;;;4.37;;
69979;SDS011;57318;56.232;43.944;2022-12-15T12:34:33;10.07;;;4.65;;
69979;SDS011;57318;56.232;43.944;2022-12-15T12:37:41;13.40;;;5.28;;
69979;SDS011;57318;56.232;43.944;2022-12-15T12:40:23;10.75;;;4.40;;
69979;SDS011;57318;56.232;43.944;2022-12-15T12:46:04;8.32;;;3.90;;
69979;SDS011;57318;56.232;43.944;2022-12-15T12:48:50;8.70;;;4.18;;
69979;SDS011;57318;56.232;43.944;2022-12-15T12:53:59;10.02;;;4.43;;
69979;SDS011;57318;56.232;43.944;2022-12-15T13:01:57;8.43;;;4.15;;
69979;SDS011;57318;56.232;43.944;2022-12-15T13:07:52;9.48;;;3.85;;
69979;SDS011;57318;56.232;43.944;2022-12-15T13:10:20;9.65;;;4.32;;
69979;SDS011;57318;56.232;43.944;2022-12-15T13:12:50;8.98;;;4.15;;
69979;SDS011;57318;56.232;43.944;2022-12-15T13:20:33;10.77;;;4.57;;
69979;SDS011;57318;56.232;43.944;2022-12-15T13:44:34;15.07;;;5.75;;
69979;SDS011;57318;56.232;43.944;2022-12-15T13:50:02;15.65;;;6.47;;
69979;SDS011;57318;56.232;43.944;2022-12-15T13:52:49;22.08;;;7.85;;
69979;SDS011;57318;56.232;43.944;2022-12-15T13:55:21;20.98;;;8.77;;
69979;SDS011;57318;56.232;43.944;2022-12-15T13:57:57;18.75;;;7.68;;
69979;SDS011;57318;56.232;43.944;2022-12-15T14:00:28;22.90;;;8.00;;
69979;SDS011;57318;56.232;43.944;2022-12-15T14:03:04;18.25;;;7.38;;
69979;SDS011;57318;56.232;43.944;2022-12-15T14:05:36;14.00;;;6.50;;
69979;SDS011;57318;56.232;43.944;2022-12-15T14:08:09;19.95;;;7.90;;
69979;SDS011;57318;56.232;43.944;2022-12-15T14:13:19;14.70;;;6.68;;
69979;SDS011;57318;56.232;43.944;2022-12-15T14:16:22;13.73;;;5.68;;
69979;SDS011;57318;56.232;43.944;2022-12-15T14:18:41;18.25;;;7.95;;
69979;SDS011;57318;56.232;43.944;2022-12-15T14:21:21;17.52;;;7.72;;
69979;SDS011;57318;56.232;43.944;2022-12-15T14:23:48;19.60;;;7.47;;
69979;SDS011;57318;56.232;43.944;2022-12-15T14:26:14;13.35;;;5.95;;
69979;SDS011;57318;56.232;43.944;2022-12-15T14:28:42;13.95;;;5.80;;
69979;SDS011;57318;56.232;43.944;2022-12-15T14:33:35;16.23;;;7.23;;
69979;SDS011;57318;56.232;43.944;2022-12-15T14:36:07;17.52;;;7.07;;
69979;SDS011;57318;56.232;43.944;2022-12-15T14:41:19;12.02;;;4.90;;
69979;SDS011;57318;56.232;43.944;2022-12-15T14:43:48;16.10;;;7.18;;
69979;SDS011;57318;56.232;43.944;2022-12-15T14:46:17;18.73;;;7.50;;
69979;SDS011;57318;56.232;43.944;2022-12-15T14:48:53;15.13;;;6.93;;
69979;SDS011;57318;56.232;43.944;2022-12-15T14:51:19;14.55;;;6.55;;
69979;SDS011;57318;56.232;43.944;2022-12-15T14:58:44;16.38;;;6.38;;
69979;SDS011;57318;56.232;43.944;2022-12-15T15:01:38;18.65;;;7.55;;
69979;SDS011;57318;56.232;43.944;2022-12-15T15:04:24;20.25;;;7.25;;
69979;SDS011;57318;56.232;43.944;2022-12-15T15:06:57;17.48;;;7.68;;
69979;SDS011;57318;56.232;43.944;2022-12-15T15:09:26;21.17;;;6.90;;
69979;SDS011;57318;56.232;43.944;2022-12-15T15:12:14;19.42;;;7.60;;
69979;SDS011;57318;56.232;43.944;2022-12-15T15:14:46;21.83;;;8.05;;
69979;SDS011;57318;56.232;43.944;2022-12-15T15:17:19;19.35;;;7.47;;
69979;SDS011;57318;56.232;43.944;2022-12-15T15:22:25;21.92;;;8.77;;
69979;SDS011;57318;56.232;43.944;2022-12-15T15:24:58;23.80;;;9.10;;
69979;SDS011;57318;56.232;43.944;2022-12-15T15:27:25;20.23;;;7.95;;
69979;SDS011;57318;56.232;43.944;2022-12-15T15:30:05;19.95;;;7.30;;
69979;SDS011;57318;56.232;43.944;2022-12-15T15:32:55;21.05;;;8.25;;
69979;SDS011;57318;56.232;43.944;2022-12-15T15:35:23;22.23;;;7.93;;
69979;SDS011;57318;56.232;43.944;2022-12-15T15:37:54;21.45;;;9.18;;
69979;SDS011;57318;56.232;43.944;2022-12-15T15:40:27;17.75;;;6.57;;
69979;SDS011;57318;56.232;43.944;2022-12-15T15:42:53;16.90;;;6.93;;
69979;SDS011;57318;56.232;43.944;2022-12-15T15:45:19;21.48;;;7.95;;
69979;SDS011;57318;56.232;43.944;2022-12-15T15:47:46;20.23;;;7.40;;
69979;SDS011;57318;56.232;43.944;2022-12-15T15:50:16;20.77;;;7.93;;
69979;SDS011;57318;56.232;43.944;2022-12-15T15:52:46;19.17;;;7.82;;
69979;SDS011;57318;56.232;43.944;2022-12-15T15:55:17;22.15;;;8.57;;
69979;SDS011;57318;56.232;43.944;2022-12-15T15:57:49;22.38;;;7.70;;
69979;SDS011;57318;56.232;43.944;2022-12-15T16:00:19;19.40;;;8.73;;
69979;SDS011;57318;56.232;43.944;2022-12-15T16:02:46;17.35;;;7.10;;
69979;SDS011;57318;56.232;43.944;2022-12-15T16:05:12;21.95;;;8.43;;
69979;SDS011;57318;56.232;43.944;2022-12-15T16:07:38;17.27;;;6.38;;
69979;SDS011;57318;56.232;43.944;2022-12-15T16:10:13;21.30;;;8.02;;
69979;SDS011;57318;56.232;43.944;2022-12-15T16:12:43;19.45;;;7.60;;
69979;SDS011;57318;56.232;43.944;2022-12-15T16:15:15;15.07;;;6.30;;
69979;SDS011;57318;56.232;43.944;2022-12-15T16:17:43;18.00;;;7.32;;
69979;SDS011;57318;56.232;43.944;2022-12-15T16:20:12;14.60;;;5.50;;
69979;SDS011;57318;56.232;43.944;2022-12-15T16:22:39;16.13;;;6.00;;
69979;SDS011;57318;56.232;43.944;2022-12-15T16:25:17;18.98;;;8.32;;
69979;SDS011;57318;56.232;43.944;2022-12-15T16:27:46;20.40;;;7.47;;
69979;SDS011;57318;56.232;43.944;2022-12-15T16:30:19;22.27;;;8.48;;
69979;SDS011;57318;56.232;43.944;2022-12-15T16:32:50;18.27;;;7.50;;
69979;SDS011;57318;56.232;43.944;2022-12-15T16:35:17;18.45;;;7.68;;
69979;SDS011;57318;56.232;43.944;2022-12-15T16:37:43;20.50;;;8.20;;
69979;SDS011;57318;56.232;43.944;2022-12-15T16:40:23;22.17;;;8.38;;
69979;SDS011;57318;56.232;43.944;2022-12-15T16:42:52;19.85;;;7.47;;
69979;SDS011;57318;56.232;43.944;2022-12-15T16:45:18;20.38;;;8.43;;
69979;SDS011;57318;56.232;43.944;2022-12-15T16:47:46;19.83;;;7.65;;
69979;SDS011;57318;56.232;43.944;2022-12-15T16:50:13;25.00;;;8.23;;
69979;SDS011;57318;56.232;43.944;2022-12-15T16:52:41;17.20;;;7.28;;
69979;SDS011;57318;56.232;43.944;2022-12-15T16:55:23;23.48;;;8.57;;
69979;SDS011;57318;56.232;43.944;2022-12-15T16:57:53;18.67;;;7.75;;
69979;SDS011;57318;56.232;43.944;2022-12-15T17:00:25;14.20;;;6.30;;
69979;SDS011;57318;56.232;43.944;2022-12-15T17:05:24;14.50;;;6.43;;
69979;SDS011;57318;56.232;43.944;2022-12-15T17:07:54;17.77;;;7.72;;
69979;SDS011;57318;56.232;43.944;2022-12-15T17:10:24;19.83;;;8.82;;
69979;SDS011;57318;56.232;43.944;2022-12-15T17:12:52;16.20;;;6.65;;
69979;SDS011;57318;56.232;43.944;2022-12-15T17:15:21;16.75;;;6.90;;
69979;SDS011;57318;56.232;43.944;2022-12-15T17:17:52;18.48;;;6.53;;
69979;SDS011;57318;56.232;43.944;2022-12-15T17:20:20;15.63;;;6.05;;
69979;SDS011;57318;56.232;43.944;2022-12-15T17:22:55;17.02;;;6.75;;
69979;SDS011;57318;56.232;43.944;2022-12-15T17:25:25;14.82;;;6.20;;
69979;SDS011;57318;56.232;43.944;2022-12-15T17:27:58;15.35;;;6.18;;
69979;SDS011;57318;56.232;43.944;2022-12-15T17:30:24;14.80;;;6.45;;
69979;SDS011;57318;56.232;43.944;2022-12-15T17:32:50;11.20;;;5.40;;
69979;SDS011;57318;56.232;43.944;2022-12-15T17:35:16;16.03;;;7.03;;
69979;SDS011;57318;56.232;43.944;2022-12-15T17:37:42;17.25;;;7.97;;
69979;SDS011;57318;56.232;43.944;2022-12-15T17:40:16;17.25;;;7.13;;
69979;SDS011;57318;56.232;43.944;2022-12-15T17:42:44;18.42;;;7.45;;
69979;SDS011;57318;56.232;43.944;2022-12-15T17:45:14;19.42;;;7.75;;